Time;durP1;ratioP1;P1;durP2;ratioP2;P2;SDS_P1;SDS_P2;PMS_P1;PMS_P2;Temp;Humidity;BMP_temperature;BMP_pressure;BME280_temperature;BME280_humidity;BME280_pressure;Samples;Min_cycle;Max_cycle;Signal;HPM_P1;HPM_P2
2022/04/27 00:00:20;;;;;;;;;;;6.40;99.90;;;;;;5097552;28;19978;-59
2022/04/27 00:02:46;;;;;;;;;;;6.40;99.90;;;;;;5114433;28;19928;-59
2022/04/27 00:05:12;;;;;;;;;;;6.50;99.90;;;;;;5115724;28;19931;-59
2022/04/27 00:07:38;;;;;;;;;;;6.50;99.90;;;;;;5115919;28;19954;-59
2022/04/27 00:10:05;;;;;;;;;;;6.60;99.90;;;;;;5114556;28;19924;-59
2022/04/27 00:12:31;;;;;;;;;;;6.60;99.90;;;;;;5115136;28;19931;-59
2022/04/27 00:14:57;;;;;;;;;;;6.70;99.90;;;;;;5115847;28;19924;-59
2022/04/27 00:17:22;;;;;;;;;;;6.70;99.90;;;;;;5114885;28;20014;-59
2022/04/27 00:19:48;;;;;;;;;;;6.60;99.90;;;;;;5115010;28;20024;-59
2022/04/27 00:22:14;;;;;;;;;;;6.60;99.90;;;;;;5109674;28;19924;-59
2022/04/27 00:24:39;;;;;;;;;;;6.60;99.90;;;;;;5111417;28;19928;-59
2022/04/27 00:27:05;;;;;;;;;;;6.70;99.90;;;;;;5113971;28;20324;-59
2022/04/27 00:29:31;;;;;;;;;;;6.60;99.90;;;;;;5100856;28;19923;-59
2022/04/27 00:31:57;;;;;;;;;;;6.60;99.90;;;;;;5114331;28;19993;-59
2022/04/27 00:34:22;;;;;;;;;;;6.60;99.90;;;;;;5096871;28;19930;-59
2022/04/27 00:36:48;;;;;;;;;;;6.50;99.90;;;;;;5096540;28;20007;-59
2022/04/27 00:39:14;;;;;;;;;;;6.50;99.90;;;;;;5096200;28;19923;-59
2022/04/27 00:41:58;;;;;;;;;;;6.50;99.90;;;;;;5115024;28;19923;-59
2022/04/27 00:44:25;;;;;;;;;;;6.50;99.90;;;;;;5079643;28;19972;-59
2022/04/27 00:46:51;;;;;;;;;;;6.40;99.90;;;;;;5112705;28;20385;-59
2022/04/27 00:49:17;;;;;;;;;;;6.30;99.90;;;;;;5114657;28;19970;-59
2022/04/27 00:51:43;;;;;;;;;;;6.30;99.90;;;;;;5114570;28;19974;-59
2022/04/27 00:54:08;;;;;;;;;;;6.30;99.90;;;;;;5113094;28;19984;-59
2022/04/27 00:56:35;;;;;;;;;;;6.30;99.90;;;;;;5096271;28;19967;-59
2022/04/27 00:59:00;;;;;;;;;;;6.30;99.90;;;;;;5095874;28;19928;-59
2022/04/27 01:01:26;;;;;;;;;;;6.20;99.90;;;;;;5114815;28;20389;-59
2022/04/27 01:03:52;;;;;;;;;;;6.30;99.90;;;;;;5095819;28;19930;-59
2022/04/27 01:06:17;;;;;;;;;;;6.40;99.90;;;;;;5095640;28;20305;-59
2022/04/27 01:08:43;;;;;;;;;;;6.40;99.90;;;;;;5114674;28;19923;-59
2022/04/27 01:11:09;;;;;;;;;;;6.50;99.90;;;;;;5114550;28;19931;-59
2022/04/27 01:13:42;;;;;;;;;;;6.50;99.90;;;;;;5095155;28;20593;-59
2022/04/27 01:16:08;;;;;;;;;;;6.60;99.90;;;;;;5079272;28;19923;-59
2022/04/27 01:18:34;;;;;;;;;;;6.70;99.90;;;;;;5096432;28;19924;-59
2022/04/27 01:21:02;;;;;;;;;;;6.80;99.90;;;;;;5112968;28;19932;-59
2022/04/27 01:23:28;;;;;;;;;;;6.80;99.90;;;;;;5088562;28;19924;-59
2022/04/27 01:25:55;;;;;;;;;;;6.90;99.90;;;;;;5075542;28;19924;-59
2022/04/27 01:28:22;;;;;;;;;;;7.00;99.90;;;;;;5092780;28;19961;-58
2022/04/27 01:30:54;;;;;;;;;;;7.00;99.90;;;;;;5085773;28;20392;-59
2022/04/27 01:33:21;;;;;;;;;;;7.00;99.90;;;;;;5114352;28;19927;-59
2022/04/27 01:35:46;;;;;;;;;;;7.00;99.90;;;;;;5094796;28;19928;-59
2022/04/27 01:38:14;;;;;;;;;;;7.00;99.90;;;;;;5095481;28;19931;-59
2022/04/27 01:40:40;;;;;;;;;;;7.10;99.90;;;;;;5113400;28;19931;-59
2022/04/27 01:43:06;;;;;;;;;;;6.90;99.90;;;;;;5113129;28;19927;-59
2022/04/27 01:45:31;;;;;;;;;;;6.90;99.90;;;;;;5114094;28;19969;-59
2022/04/27 01:47:57;;;;;;;;;;;6.90;99.90;;;;;;5095411;28;19967;-59
2022/04/27 01:50:23;;;;;;;;;;;7.00;99.90;;;;;;5077375;28;20385;-58
2022/04/27 01:55:26;;;;;;;;;;;7.20;99.90;;;;;;5095117;28;19924;-59
2022/04/27 01:57:53;;;;;;;;;;;7.00;99.90;;;;;;5094980;28;20332;-59
2022/04/27 02:00:20;;;;;;;;;;;7.00;99.90;;;;;;5095552;28;19924;-59
2022/04/27 02:02:46;;;;;;;;;;;7.10;99.90;;;;;;5094591;28;19928;-59
2022/04/27 02:05:12;;;;;;;;;;;7.10;99.90;;;;;;5094638;28;19977;-59
2022/04/27 02:07:38;;;;;;;;;;;7.10;99.90;;;;;;5095366;28;19931;-59
2022/04/27 02:10:05;;;;;;;;;;;7.10;99.90;;;;;;5094787;28;20278;-59
2022/04/27 02:12:33;;;;;;;;;;;7.10;99.90;;;;;;5095063;28;19923;-59
2022/04/27 02:15:10;;;;;;;;;;;7.30;99.90;;;;;;5095145;28;19977;-59
2022/04/27 02:17:39;;;;;;;;;;;7.20;99.90;;;;;;5094694;28;19931;-59
2022/04/27 02:20:05;;;;;;;;;;;7.10;99.90;;;;;;5094907;28;19931;-59
2022/04/27 02:22:32;;;;;;;;;;;7.10;99.90;;;;;;5078525;28;20416;-59
2022/04/27 02:24:58;;;;;;;;;;;7.30;99.90;;;;;;5110828;28;19977;-59
2022/04/27 02:27:24;;;;;;;;;;;7.00;99.90;;;;;;5113338;28;19924;-59
2022/04/27 02:29:50;;;;;;;;;;;7.00;99.90;;;;;;5095000;28;20396;-59
2022/04/27 02:32:23;;;;;;;;;;;6.90;99.90;;;;;;5094377;28;19968;-59
2022/04/27 02:34:50;;;;;;;;;;;7.00;99.90;;;;;;5095021;28;19931;-59
2022/04/27 02:37:17;;;;;;;;;;;7.00;99.90;;;;;;5078167;28;20014;-59
2022/04/27 02:39:45;;;;;;;;;;;7.10;99.90;;;;;;5095425;28;19930;-59
2022/04/27 02:42:11;;;;;;;;;;;7.20;99.90;;;;;;5094441;28;20061;-59
2022/04/27 02:44:36;;;;;;;;;;;7.30;99.90;;;;;;5094257;28;20010;-59
2022/04/27 02:47:03;;;;;;;;;;;7.20;99.90;;;;;;5095483;28;19990;-59
2022/04/27 02:52:14;;;;;;;;;;;7.20;99.90;;;;;;5113118;28;19931;-59
2022/04/27 02:54:58;;;;;;;;;;;7.10;99.90;;;;;;5117060;28;19946;-59
2022/04/27 02:57:24;;;;;;;;;;;7.10;99.90;;;;;;5116206;28;19924;-59
2022/04/27 02:59:51;;;;;;;;;;;7.10;99.90;;;;;;5097299;28;19924;-59
2022/04/27 03:02:17;;;;;;;;;;;7.00;99.90;;;;;;5098632;28;19923;-59
2022/04/27 03:04:44;;;;;;;;;;;7.10;99.90;;;;;;5098788;28;19924;-59
2022/04/27 03:07:10;;;;;;;;;;;7.20;99.90;;;;;;5097887;28;20277;-59
2022/04/27 03:09:43;;;;;;;;;;;7.10;99.90;;;;;;5081437;28;19923;-58
2022/04/27 03:12:08;;;;;;;;;;;7.20;99.90;;;;;;5116527;28;20445;-59
2022/04/27 03:14:38;;;;;;;;;;;7.20;99.90;;;;;;5097817;28;19923;-59
2022/04/27 03:17:04;;;;;;;;;;;7.20;99.90;;;;;;5080301;28;19930;-59
2022/04/27 03:19:31;;;;;;;;;;;7.20;99.90;;;;;;5096914;28;20141;-59
2022/04/27 03:21:57;;;;;;;;;;;7.20;99.90;;;;;;5098223;28;19930;-59
2022/04/27 03:24:23;;;;;;;;;;;7.10;99.90;;;;;;5116374;28;19924;-59
2022/04/27 03:26:51;;;;;;;;;;;7.10;99.90;;;;;;5080976;28;19924;-59
2022/04/27 03:29:20;;;;;;;;;;;7.30;99.90;;;;;;5115170;28;19932;-58
2022/04/27 03:31:52;;;;;;;;;;;7.00;99.90;;;;;;5097902;28;19934;-59
2022/04/27 03:34:17;;;;;;;;;;;6.90;99.90;;;;;;5113755;28;19924;-59
2022/04/27 03:36:45;;;;;;;;;;;6.90;99.90;;;;;;5080316;28;20385;-59
2022/04/27 03:39:13;;;;;;;;;;;6.70;99.90;;;;;;5080778;28;19923;-59
2022/04/27 03:41:39;;;;;;;;;;;6.80;99.90;;;;;;5096630;28;19992;-59
2022/04/27 03:44:05;;;;;;;;;;;6.70;99.90;;;;;;5115653;28;20365;-59
2022/04/27 03:46:31;;;;;;;;;;;6.80;99.90;;;;;;5097515;28;19931;-59
2022/04/27 03:48:57;;;;;;;;;;;6.70;99.90;;;;;;5079715;28;19931;-59
2022/04/27 03:51:23;;;;;;;;;;;6.70;99.90;;;;;;5096128;28;19932;-59
2022/04/27 03:53:49;;;;;;;;;;;6.60;99.90;;;;;;5097011;28;19931;-59
2022/04/27 03:56:14;;;;;;;;;;;6.60;99.90;;;;;;5079160;28;19975;-59
2022/04/27 03:58:40;;;;;;;;;;;6.50;99.90;;;;;;5097443;28;19924;-58
2022/04/27 04:01:07;;;;;;;;;;;6.50;99.90;;;;;;5096637;28;20429;-59
2022/04/27 04:03:33;;;;;;;;;;;6.50;99.90;;;;;;5114650;28;20010;-59
2022/04/27 04:05:59;;;;;;;;;;;6.50;99.90;;;;;;5096764;28;20026;-59
2022/04/27 04:08:35;;;;;;;;;;;6.50;99.90;;;;;;5096954;28;19923;-59
2022/04/27 04:11:01;;;;;;;;;;;6.40;99.90;;;;;;5078755;28;19931;-59
2022/04/27 04:13:44;;;;;;;;;;;6.40;99.90;;;;;;5095610;28;19924;-59
2022/04/27 04:16:19;;;;;;;;;;;6.40;99.90;;;;;;5114725;28;19930;-59
2022/04/27 04:19:07;;;;;;;;;;;6.50;99.90;;;;;;5096774;28;19938;-59
2022/04/27 04:21:51;;;;;;;;;;;6.60;99.90;;;;;;5112858;28;20294;-59
2022/04/27 04:24:34;;;;;;;;;;;6.40;99.90;;;;;;5110198;28;20018;-59
2022/04/27 04:29:44;;;;;;;;;;;6.10;99.90;;;;;;5097116;28;19932;-59
2022/04/27 04:32:11;;;;;;;;;;;6.30;99.90;;;;;;5078935;28;19924;-58
2022/04/27 04:34:54;;;;;;;;;;;6.30;99.90;;;;;;5094492;28;20416;-58
2022/04/27 04:37:19;;;;;;;;;;;6.30;99.90;;;;;;5095751;28;19992;-58
2022/04/27 04:39:49;;;;;;;;;;;6.10;99.90;;;;;;5096714;28;19947;-59
2022/04/27 04:42:15;;;;;;;;;;;6.20;99.90;;;;;;5096867;28;19965;-59
2022/04/27 04:44:42;;;;;;;;;;;6.20;99.90;;;;;;5114003;28;19924;-59
2022/04/27 04:47:14;;;;;;;;;;;6.20;99.90;;;;;;5096699;28;19924;-58
2022/04/27 04:49:55;;;;;;;;;;;6.20;99.90;;;;;;5114717;28;20289;-58
2022/04/27 04:52:39;;;;;;;;;;;6.20;99.90;;;;;;5112925;28;19924;-59
2022/04/27 04:55:25;;;;;;;;;;;6.30;99.90;;;;;;5095988;28;19924;-59
2022/04/27 04:58:06;;;;;;;;;;;6.40;99.90;;;;;;5095702;28;19927;-59
2022/04/27 05:00:48;;;;;;;;;;;6.50;99.90;;;;;;5092936;28;20041;-59
2022/04/27 05:03:42;;;;;;;;;;;6.60;99.90;;;;;;5091072;28;19947;-59
2022/04/27 05:06:25;;;;;;;;;;;6.70;99.90;;;;;;5112801;28;19924;-59
2022/04/27 05:09:01;;;;;;;;;;;6.70;99.90;;;;;;5113980;28;19923;-59
2022/04/27 05:11:47;;;;;;;;;;;6.70;99.90;;;;;;5095118;28;19923;-59
2022/04/27 05:14:22;;;;;;;;;;;6.80;99.90;;;;;;5095576;28;19982;-59
2022/04/27 05:17:07;;;;;;;;;;;6.70;99.90;;;;;;5095690;28;19924;-59
2022/04/27 05:19:52;;;;;;;;;;;6.80;99.90;;;;;;5113523;28;19976;-59
2022/04/27 05:22:32;;;;;;;;;;;7.00;99.90;;;;;;5096131;28;20381;-59
2022/04/27 05:25:12;;;;;;;;;;;7.00;99.90;;;;;;5075631;28;19931;-59
2022/04/27 05:28:06;;;;;;;;;;;6.90;99.90;;;;;;5092991;28;19928;-58
2022/04/27 05:34:03;;;;;;;;;;;7.00;99.90;;;;;;5092800;28;20327;-58
2022/04/27 05:36:38;;;;;;;;;;;7.90;99.90;;;;;;5075555;28;19924;-58
2022/04/27 05:39:24;;;;;;;;;;;7.30;99.90;;;;;;5110550;28;20030;-58
2022/04/27 05:42:06;;;;;;;;;;;7.80;99.90;;;;;;5112250;28;20073;-59
2022/04/27 05:44:33;;;;;;;;;;;7.00;99.90;;;;;;5114075;28;20365;-59
2022/04/27 05:47:18;;;;;;;;;;;7.50;99.90;;;;;;5094548;28;19974;-59
2022/04/27 05:50:08;;;;;;;;;;;7.50;99.90;;;;;;5095637;28;19934;-59
2022/04/27 05:52:46;;;;;;;;;;;7.40;99.90;;;;;;5113549;28;19976;-59
2022/04/27 05:55:43;;;;;;;;;;;7.50;99.90;;;;;;5112492;28;19924;-59
2022/04/27 05:58:43;;;;;;;;;;;7.50;99.90;;;;;;5113846;28;19927;-59
2022/04/27 06:01:41;;;;;;;;;;;7.60;99.90;;;;;;5112447;28;20370;-59
2022/04/27 06:04:09;;;;;;;;;;;7.30;99.90;;;;;;5077897;28;19924;-59
2022/04/27 06:06:40;;;;;;;;;;;7.40;99.90;;;;;;5077959;28;19932;-59
2022/04/27 06:09:08;;;;;;;;;;;7.60;99.90;;;;;;5093846;28;20282;-59
2022/04/27 06:11:52;;;;;;;;;;;7.60;99.90;;;;;;5093255;28;19976;-59
2022/04/27 06:14:37;;;;;;;;;;;7.70;99.90;;;;;;5112931;28;19931;-59
2022/04/27 06:17:05;;;;;;;;;;;7.80;99.90;;;;;;5094168;28;19973;-59
2022/04/27 06:19:34;;;;;;;;;;;7.90;99.90;;;;;;5095013;28;19924;-59
2022/04/27 06:22:02;;;;;;;;;;;7.90;99.90;;;;;;5094643;28;19935;-60
2022/04/27 06:24:31;;;;;;;;;;;8.00;99.90;;;;;;5114325;28;19924;-59
2022/04/27 06:27:12;;;;;;;;;;;8.10;99.90;;;;;;5099660;28;19947;-59
2022/04/27 06:29:38;;;;;;;;;;;8.10;99.90;;;;;;5097928;28;19932;-59
2022/04/27 06:32:04;;;;;;;;;;;8.40;99.90;;;;;;5082108;28;19928;-59
2022/04/27 06:34:31;;;;;;;;;;;8.40;99.90;;;;;;5117449;28;20046;-59
2022/04/27 06:36:57;;;;;;;;;;;8.60;99.90;;;;;;5098174;28;19928;-59
2022/04/27 06:39:31;;;;;;;;;;;8.60;99.90;;;;;;5099100;28;19924;-59
2022/04/27 06:41:57;;;;;;;;;;;8.70;99.90;;;;;;5099096;28;19924;-59
2022/04/27 06:44:29;;;;;;;;;;;8.90;99.90;;;;;;5116321;28;20018;-59
2022/04/27 06:47:13;;;;;;;;;;;9.00;99.90;;;;;;5117574;28;19931;-59
2022/04/27 06:49:57;;;;;;;;;;;9.00;99.90;;;;;;5116743;28;19924;-59
2022/04/27 06:52:42;;;;;;;;;;;9.00;99.90;;;;;;5116043;28;19924;-59
2022/04/27 06:55:26;;;;;;;;;;;9.10;99.90;;;;;;5116871;28;19938;-59
2022/04/27 06:58:17;;;;;;;;;;;9.20;99.90;;;;;;5113565;28;19997;-59
2022/04/27 07:00:47;;;;;;;;;;;9.60;99.90;;;;;;5098610;28;19955;-59
2022/04/27 07:03:13;;;;;;;;;;;9.30;99.90;;;;;;5098874;28;19963;-59
2022/04/27 07:05:40;;;;;;;;;;;9.50;99.90;;;;;;5116380;28;19924;-59
2022/04/27 07:08:06;;;;;;;;;;;9.60;99.90;;;;;;5080891;28;19934;-59
2022/04/27 07:10:36;;;;;;;;;;;9.60;99.90;;;;;;5116954;28;20132;-59
2022/04/27 07:13:03;;;;;;;;;;;9.60;99.90;;;;;;5115291;28;19923;-59
2022/04/27 07:15:29;;;;;;;;;;;9.70;99.90;;;;;;5116344;28;20283;-59
2022/04/27 07:17:54;;;;;;;;;;;9.70;99.90;;;;;;5116547;28;19928;-59
2022/04/27 07:20:20;;;;;;;;;;;9.70;99.90;;;;;;5114141;28;20446;-59
2022/04/27 07:22:45;;;;;;;;;;;9.80;99.90;;;;;;5115922;28;19975;-59
2022/04/27 07:25:12;;;;;;;;;;;10.00;99.90;;;;;;5115809;28;20389;-59
2022/04/27 07:27:38;;;;;;;;;;;10.20;99.90;;;;;;5110311;28;19946;-59
2022/04/27 07:30:04;;;;;;;;;;;10.30;99.90;;;;;;5100638;28;20371;-59
2022/04/27 07:32:29;;;;;;;;;;;10.40;99.90;;;;;;5098948;28;19943;-60
2022/04/27 07:34:55;;;;;;;;;;;10.50;99.90;;;;;;5114721;28;19977;-60
2022/04/27 07:37:21;;;;;;;;;;;10.60;99.90;;;;;;5115040;28;20301;-60
2022/04/27 07:39:46;;;;;;;;;;;10.70;99.90;;;;;;5115307;28;19931;-59
2022/04/27 07:42:12;;;;;;;;;;;10.80;99.60;;;;;;5097506;28;19923;-60
2022/04/27 07:44:37;;;;;;;;;;;10.70;99.90;;;;;;5096140;28;19969;-59
2022/04/27 07:47:03;;;;;;;;;;;10.80;99.90;;;;;;5096297;28;19928;-59
2022/04/27 07:49:29;;;;;;;;;;;10.90;99.40;;;;;;5115172;28;19967;-59
2022/04/27 07:51:55;;;;;;;;;;;10.80;98.50;;;;;;5114581;28;19927;-59
2022/04/27 07:54:21;;;;;;;;;;;10.50;94.80;;;;;;5095958;28;19923;-59
2022/04/27 07:56:46;;;;;;;;;;;10.50;96.20;;;;;;5115948;28;20400;-59
2022/04/27 07:59:12;;;;;;;;;;;10.60;98.30;;;;;;5112722;28;20389;-60
2022/04/27 08:01:38;;;;;;;;;;;10.60;98.30;;;;;;5094509;28;20431;-59
2022/04/27 08:04:03;;;;;;;;;;;10.60;99.60;;;;;;5109076;28;19924;-60
2022/04/27 08:06:29;;;;;;;;;;;10.70;99.10;;;;;;5115486;28;20473;-60
2022/04/27 08:08:55;;;;;;;;;;;10.70;95.40;;;;;;5114251;28;19927;-60
2022/04/27 08:11:22;;;;;;;;;;;10.80;98.10;;;;;;5112574;28;20188;-60
2022/04/27 08:13:48;;;;;;;;;;;10.80;97.90;;;;;;5094729;28;19928;-60
2022/04/27 08:16:13;;;;;;;;;;;10.90;99.10;;;;;;5094318;28;19924;-59
2022/04/27 08:18:40;;;;;;;;;;;11.00;98.50;;;;;;5111724;28;20018;-59
2022/04/27 08:21:14;;;;;;;;;;;11.10;97.90;;;;;;5114574;28;20386;-59
2022/04/27 08:23:40;;;;;;;;;;;11.30;98.00;;;;;;5103902;28;19924;-59
2022/04/27 08:26:07;;;;;;;;;;;11.40;98.10;;;;;;5114554;28;20373;-59
2022/04/27 08:28:33;;;;;;;;;;;11.50;98.60;;;;;;5076223;28;19928;-59
2022/04/27 08:30:59;;;;;;;;;;;11.60;97.80;;;;;;5112325;28;19923;-60
2022/04/27 08:33:25;;;;;;;;;;;11.60;97.70;;;;;;5115487;28;20018;-59
2022/04/27 08:35:51;;;;;;;;;;;11.70;98.20;;;;;;5114494;28;20019;-59
2022/04/27 08:38:16;;;;;;;;;;;11.90;97.70;;;;;;5113648;28;20294;-59
2022/04/27 08:40:43;;;;;;;;;;;11.80;97.90;;;;;;5114998;28;20408;-59
2022/04/27 08:43:09;;;;;;;;;;;11.90;98.90;;;;;;5112808;28;19936;-59
2022/04/27 08:45:36;;;;;;;;;;;12.30;98.90;;;;;;5114598;28;19931;-60
2022/04/27 08:48:01;;;;;;;;;;;12.00;96.30;;;;;;5113416;28;19924;-59
2022/04/27 08:50:28;;;;;;;;;;;11.80;96.10;;;;;;5113018;28;19928;-60
2022/04/27 08:52:55;;;;;;;;;;;11.70;93.90;;;;;;5114099;28;20328;-59
2022/04/27 08:55:21;;;;;;;;;;;11.60;93.00;;;;;;5094641;28;20206;-60
2022/04/27 08:57:48;;;;;;;;;;;11.50;97.20;;;;;;5092225;28;19950;-59
2022/04/27 09:00:18;;;;;;;;;;;11.40;96.40;;;;;;5114109;28;19939;-59
2022/04/27 09:02:45;;;;;;;;;;;11.40;96.80;;;;;;5109578;28;20377;-59
2022/04/27 09:05:10;;;;;;;;;;;11.50;97.90;;;;;;5112981;28;19928;-59
2022/04/27 09:07:40;;;;;;;;;;;11.80;98.00;;;;;;5114677;28;19927;-60
2022/04/27 09:10:07;;;;;;;;;;;11.90;97.20;;;;;;5113577;28;19931;-59
2022/04/27 09:12:34;;;;;;;;;;;11.90;96.80;;;;;;5110425;28;19971;-59
2022/04/27 09:15:04;;;;;;;;;;;12.00;96.50;;;;;;5094108;28;20016;-60
2022/04/27 09:23:00;;;;;;;;;;;11.70;96.10;;;;;;5086650;28;20014;-60
2022/04/27 09:25:31;;;;;;;;;;;11.70;95.80;;;;;;5113423;28;20022;-60
2022/04/27 09:27:59;;;;;;;;;;;11.90;97.10;;;;;;5099783;28;19924;-60
2022/04/27 09:30:26;;;;;;;;;;;12.10;95.80;;;;;;5093732;28;19924;-59
2022/04/27 09:32:52;;;;;;;;;;;12.20;92.80;;;;;;5102795;28;19924;-60
2022/04/27 09:35:29;;;;;;;;;;;12.30;93.80;;;;;;5108809;28;19931;-60
2022/04/27 09:37:55;;;;;;;;;;;12.50;95.20;;;;;;5107445;28;19927;-60
2022/04/27 09:40:21;;;;;;;;;;;12.50;88.90;;;;;;5113528;28;20388;-60
2022/04/27 09:42:46;;;;;;;;;;;12.60;91.60;;;;;;5095476;28;20317;-60
2022/04/27 09:45:14;;;;;;;;;;;12.50;88.70;;;;;;5112863;28;20333;-60
2022/04/27 09:47:45;;;;;;;;;;;12.50;90.40;;;;;;5112976;28;19924;-59
2022/04/27 09:50:11;;;;;;;;;;;12.50;92.60;;;;;;5112317;28;19932;-60
2022/04/27 09:52:37;;;;;;;;;;;12.50;90.70;;;;;;5112678;28;19932;-60
2022/04/27 09:55:02;;;;;;;;;;;12.40;93.80;;;;;;5094057;28;19930;-60
2022/04/27 09:57:29;;;;;;;;;;;12.40;94.30;;;;;;5095320;28;19920;-60
2022/04/27 09:59:55;;;;;;;;;;;12.60;94.60;;;;;;5095227;28;19930;-60
2022/04/27 10:02:24;;;;;;;;;;;12.70;94.40;;;;;;5112286;28;19928;-60
2022/04/27 10:04:50;;;;;;;;;;;12.80;89.60;;;;;;5112620;28;19924;-60
2022/04/27 10:07:20;;;;;;;;;;;13.00;92.60;;;;;;5113783;28;20340;-60
2022/04/27 10:09:47;;;;;;;;;;;13.00;94.60;;;;;;5112410;28;20064;-60
2022/04/27 10:12:13;;;;;;;;;;;12.90;91.80;;;;;;5112827;28;19924;-60
2022/04/27 10:14:39;;;;;;;;;;;12.60;91.00;;;;;;5112928;28;19969;-60
2022/04/27 10:17:05;;;;;;;;;;;12.40;90.90;;;;;;5113458;28;20377;-60
2022/04/27 10:19:30;;;;;;;;;;;12.30;92.20;;;;;;5113402;28;20476;-60
2022/04/27 10:21:56;;;;;;;;;;;12.20;92.60;;;;;;5112501;28;19928;-60
2022/04/27 10:24:41;;;;;;;;;;;12.20;93.30;;;;;;5080454;28;19924;-60
2022/04/27 10:27:14;;;;;;;;;;;12.20;94.60;;;;;;5092856;28;19924;-59
2022/04/27 10:29:40;;;;;;;;;;;12.20;92.60;;;;;;5095134;28;19939;-60
2022/04/27 10:32:06;;;;;;;;;;;12.10;93.90;;;;;;5113283;28;19927;-60
2022/04/27 10:34:33;;;;;;;;;;;12.30;94.20;;;;;;5113389;28;19931;-60
2022/04/27 10:37:00;;;;;;;;;;;12.30;91.20;;;;;;5094713;28;19930;-60
2022/04/27 10:39:27;;;;;;;;;;;12.40;93.30;;;;;;5113263;28;19966;-60
2022/04/27 10:42:02;;;;;;;;;;;12.50;93.10;;;;;;5113188;28;20324;-60
2022/04/27 10:44:47;;;;;;;;;;;12.50;92.40;;;;;;5112690;28;19946;-60
2022/04/27 10:47:13;;;;;;;;;;;12.40;93.40;;;;;;5113044;28;20267;-60
2022/04/27 10:49:39;;;;;;;;;;;12.30;93.30;;;;;;5112632;28;19924;-60
2022/04/27 10:52:06;;;;;;;;;;;12.10;94.50;;;;;;5112543;28;20262;-60
2022/04/27 10:54:33;;;;;;;;;;;12.10;96.60;;;;;;5113275;28;19976;-60
2022/04/27 10:57:13;;;;;;;;;;;12.00;95.60;;;;;;5092768;28;19927;-60
2022/04/27 10:59:42;;;;;;;;;;;12.10;97.20;;;;;;5112487;28;19923;-59
2022/04/27 11:02:28;;;;;;;;;;;12.10;94.90;;;;;;5112544;28;19930;-60
2022/04/27 11:04:53;;;;;;;;;;;12.00;97.00;;;;;;5090622;28;19931;-60
2022/04/27 11:07:23;;;;;;;;;;;12.00;95.10;;;;;;5093925;28;19927;-59
2022/04/27 11:09:49;;;;;;;;;;;12.00;95.80;;;;;;5112513;28;19971;-60
2022/04/27 11:12:15;;;;;;;;;;;12.20;97.90;;;;;;5115077;28;19967;-60
2022/04/27 11:14:41;;;;;;;;;;;12.40;97.20;;;;;;5116344;28;19991;-60
2022/04/27 11:17:07;;;;;;;;;;;12.50;94.20;;;;;;5113922;28;19930;-60
2022/04/27 11:19:33;;;;;;;;;;;12.60;96.00;;;;;;5115782;28;20022;-60
2022/04/27 11:22:11;;;;;;;;;;;12.70;95.30;;;;;;5116446;28;20014;-60
2022/04/27 11:24:37;;;;;;;;;;;12.70;93.80;;;;;;5116306;28;20048;-60
2022/04/27 11:27:03;;;;;;;;;;;12.90;95.50;;;;;;5115524;28;20015;-59
2022/04/27 11:29:29;;;;;;;;;;;13.30;95.60;;;;;;5116400;28;19924;-60
2022/04/27 11:31:54;;;;;;;;;;;13.90;94.40;;;;;;5115731;28;19924;-60
2022/04/27 11:34:27;;;;;;;;;;;14.30;94.80;;;;;;5116265;28;19993;-60
2022/04/27 11:36:54;;;;;;;;;;;14.40;93.10;;;;;;5116540;28;19976;-60
2022/04/27 11:39:21;;;;;;;;;;;14.40;98.80;;;;;;5115789;28;19928;-60
2022/04/27 11:41:46;;;;;;;;;;;14.10;99.90;;;;;;5115610;28;19927;-60
2022/04/27 11:44:18;;;;;;;;;;;14.50;98.70;;;;;;5098088;28;19924;-60
2022/04/27 11:46:44;;;;;;;;;;;14.20;96.80;;;;;;5115614;28;19948;-60
2022/04/27 11:49:11;;;;;;;;;;;13.60;95.10;;;;;;5115626;28;20018;-60
2022/04/27 11:51:36;;;;;;;;;;;13.20;95.50;;;;;;5115980;28;20031;-60
2022/04/27 11:54:02;;;;;;;;;;;13.00;98.40;;;;;;5115581;28;20390;-60
2022/04/27 11:56:34;;;;;;;;;;;12.90;97.40;;;;;;5115825;28;19924;-59
2022/04/27 11:59:09;;;;;;;;;;;13.00;98.30;;;;;;5115397;28;19919;-60
2022/04/27 12:01:34;;;;;;;;;;;12.90;99.30;;;;;;5114523;28;19994;-59
2022/04/27 12:04:00;;;;;;;;;;;12.80;99.10;;;;;;5097430;28;20446;-60
2022/04/27 12:06:28;;;;;;;;;;;12.70;99.50;;;;;;5116211;28;19951;-60
2022/04/27 12:08:59;;;;;;;;;;;12.40;99.90;;;;;;5104354;28;20399;-59
2022/04/27 12:11:24;;;;;;;;;;;12.30;99.90;;;;;;5076042;28;19931;-60
2022/04/27 12:13:52;;;;;;;;;;;12.20;99.90;;;;;;5095084;28;20317;-60
2022/04/27 12:16:18;;;;;;;;;;;12.20;99.90;;;;;;5101245;28;20347;-60
2022/04/27 12:18:49;;;;;;;;;;;12.20;99.90;;;;;;5097297;28;19927;-59
2022/04/27 12:21:18;;;;;;;;;;;12.20;99.90;;;;;;5114590;28;19924;-59
2022/04/27 12:23:44;;;;;;;;;;;12.20;99.90;;;;;;5106182;28;20358;-60
2022/04/27 12:26:11;;;;;;;;;;;12.30;99.90;;;;;;5109905;28;19978;-60
2022/04/27 12:28:45;;;;;;;;;;;12.30;99.90;;;;;;5113161;28;20511;-60
2022/04/27 12:31:10;;;;;;;;;;;12.30;99.90;;;;;;5115421;28;19955;-60
2022/04/27 12:33:37;;;;;;;;;;;12.40;99.90;;;;;;5114894;28;19975;-59
2022/04/27 12:39:02;;;;;;;;;;;12.40;99.90;;;;;;5115272;28;19931;-60
2022/04/27 12:41:30;;;;;;;;;;;12.60;99.90;;;;;;5114971;28;19976;-60
2022/04/27 12:44:05;;;;;;;;;;;12.70;99.90;;;;;;5114134;28;19928;-60
2022/04/27 12:46:30;;;;;;;;;;;12.90;99.90;;;;;;5096709;28;19931;-60
2022/04/27 12:49:00;;;;;;;;;;;13.00;99.90;;;;;;5114469;28;20007;-60
2022/04/27 12:51:28;;;;;;;;;;;13.10;99.90;;;;;;5113524;28;19931;-60
2022/04/27 12:53:54;;;;;;;;;;;13.10;99.60;;;;;;5115196;28;19923;-60
2022/04/27 12:56:22;;;;;;;;;;;13.20;99.40;;;;;;5095563;28;19935;-60
2022/04/27 12:58:48;;;;;;;;;;;;;;;;;;5114680;28;19924;-60
2022/04/27 13:01:27;;;;;;;;;;;13.40;97.70;;;;;;5114648;28;19924;-60
2022/04/27 13:03:53;;;;;;;;;;;13.30;99.30;;;;;;5113782;28;19947;-59
2022/04/27 13:06:19;;;;;;;;;;;13.30;99.10;;;;;;5114500;28;20395;-60
2022/04/27 13:08:44;;;;;;;;;;;13.50;98.30;;;;;;5114354;28;20300;-60
2022/04/27 13:13:54;;;;;;;;;;;13.50;96.40;;;;;;5096161;28;19930;-60
2022/04/27 13:16:20;;;;;;;;;;;13.40;96.40;;;;;;5114342;28;19981;-60
2022/04/27 13:18:45;;;;;;;;;;;13.20;97.00;;;;;;5113088;28;19931;-59
2022/04/27 13:21:11;;;;;;;;;;;13.20;98.60;;;;;;5114431;28;19966;-60
2022/04/27 13:23:39;;;;;;;;;;;13.20;99.00;;;;;;5104631;27;19919;-60
2022/04/27 13:26:04;;;;;;;;;;;13.30;98.70;;;;;;5132431;27;20388;-60
2022/04/27 13:28:30;;;;;;;;;;;13.20;99.10;;;;;;5115326;27;19924;-60
2022/04/27 13:30:56;;;;;;;;;;;13.20;99.00;;;;;;5113608;28;20121;-60
2022/04/27 13:33:22;;;;;;;;;;;13.20;99.90;;;;;;5112117;28;19934;-60
2022/04/27 13:35:48;;;;;;;;;;;13.30;99.90;;;;;;5113702;28;19924;-60
2022/04/27 13:38:13;;;;;;;;;;;13.00;99.00;;;;;;5114167;28;19923;-60
2022/04/27 13:40:40;;;;;;;;;;;12.80;98.50;;;;;;5113042;28;19928;-60
2022/04/27 13:43:06;;;;;;;;;;;12.70;99.90;;;;;;5114048;28;19959;-60
2022/04/27 13:45:31;;;;;;;;;;;12.60;99.90;;;;;;5112945;28;19978;-60
2022/04/27 13:47:57;;;;;;;;;;;12.50;99.40;;;;;;5113826;28;19924;-60
2022/04/27 13:50:23;;;;;;;;;;;12.50;99.80;;;;;;5112485;28;19927;-60
2022/04/27 13:52:49;;;;;;;;;;;12.50;99.90;;;;;;5112843;28;19929;-60
2022/04/27 13:55:15;;;;;;;;;;;12.50;99.70;;;;;;5113628;28;20246;-60
2022/04/27 13:57:41;;;;;;;;;;;12.50;99.80;;;;;;5110870;28;19979;-60
2022/04/27 14:00:07;;;;;;;;;;;12.60;98.90;;;;;;5092557;28;20071;-60
2022/04/27 14:02:37;;;;;;;;;;;12.70;99.50;;;;;;5100828;28;20285;-60
2022/04/27 14:05:03;;;;;;;;;;;12.80;99.90;;;;;;5113650;28;19930;-60
2022/04/27 14:07:29;;;;;;;;;;;13.00;99.40;;;;;;5112546;28;19931;-60
2022/04/27 14:09:54;;;;;;;;;;;13.10;99.10;;;;;;5094910;28;19924;-60
2022/04/27 14:15:05;;;;;;;;;;;13.20;99.20;;;;;;5112922;28;20366;-60
2022/04/27 14:20:15;;;;;;;;;;;13.30;97.70;;;;;;5112853;28;19969;-60
2022/04/27 14:22:40;;;;;;;;;;;13.30;97.90;;;;;;5094588;28;19923;-60
2022/04/27 14:25:06;;;;;;;;;;;13.20;97.80;;;;;;5129606;28;19960;-60
2022/04/27 14:27:33;;;;;;;;;;;13.20;97.70;;;;;;5113579;28;19931;-60
2022/04/27 14:29:58;;;;;;;;;;;13.30;98.00;;;;;;5112106;28;19923;-60
2022/04/27 14:32:24;;;;;;;;;;;13.20;98.00;;;;;;5113082;28;20298;-60
2022/04/27 14:34:49;;;;;;;;;;;13.20;97.40;;;;;;5112194;28;20001;-60
2022/04/27 14:37:15;;;;;;;;;;;13.20;97.00;;;;;;5112516;28;20263;-60
2022/04/27 14:39:41;;;;;;;;;;;13.10;97.80;;;;;;5112743;28;19924;-60
2022/04/27 14:42:06;;;;;;;;;;;13.10;98.50;;;;;;5112695;28;19934;-60
2022/04/27 14:44:32;;;;;;;;;;;13.10;99.00;;;;;;5112922;28;19930;-60
2022/04/27 14:46:58;;;;;;;;;;;13.10;98.00;;;;;;5115769;28;19946;-60
2022/04/27 14:49:23;;;;;;;;;;;13.00;98.60;;;;;;5116455;28;19923;-60
2022/04/27 14:51:49;;;;;;;;;;;13.00;98.70;;;;;;5116245;28;19931;-60
2022/04/27 14:54:15;;;;;;;;;;;12.90;98.10;;;;;;5116649;28;19928;-60
2022/04/27 14:56:41;;;;;;;;;;;12.70;98.00;;;;;;5115644;28;19928;-60
2022/04/27 14:59:07;;;;;;;;;;;12.60;98.10;;;;;;5098610;28;20518;-60
2022/04/27 15:01:33;;;;;;;;;;;12.60;99.20;;;;;;5116238;28;19977;-60